Time;durP1;ratioP1;P1;durP2;ratioP2;P2;SDS_P1;SDS_P2;PMS_P1;PMS_P2;Temp;Humidity;BMP_temperature;BMP_pressure;BME280_temperature;BME280_humidity;BME280_pressure;Samples;Min_cycle;Max_cycle;Signal;HPM_P1;HPM_P2
2024/03/19 00:01:28;;;;;;;;;;;;;;;1.42;67.47;100726.46;134118;1298;22468;-71
2024/03/19 00:04:29;;;;;;;;;;;;;;;1.39;67.64;100728.89;134141;1301;22479;-74
2024/03/19 00:07:30;;;;;;;;;;;;;;;1.40;67.57;100725.89;134144;1306;22551;-72
2024/03/19 00:10:34;;;;;;;;;;;;;;;1.42;67.79;100729.08;134097;1294;22607;-72
2024/03/19 00:13:45;;;;;;;;;;;;;;;;;;;;;
2024/03/19 00:17:10;;;;;;;;;;;;;;;1.39;67.68;100731.32;134154;1306;22479;-73
2024/03/19 00:20:13;;;;;;;;;;;;;;;1.41;67.83;100728.39;134126;1303;22618;-72
2024/03/19 00:23:13;;;;;;;;;;;;;;;1.44;67.84;100729.65;134104;1306;22490;-71
2024/03/19 00:26:14;;;;;;;;;;;;;;;1.46;67.96;100728.63;134176;1304;22459;-71
2024/03/19 00:29:15;;;;;;;;;;;;;;;1.52;68.02;100726.38;133864;1305;22537;-74
2024/03/19 00:32:18;;;;;;;;;;;;;;;1.57;68.02;100728.29;134128;1304;23166;-72
2024/03/19 00:35:19;;;;;;;;;;;;;;;1.57;68.05;100728.10;134109;1304;22466;-72
2024/03/19 00:38:19;;;;;;;;;;;;;;;1.56;68.13;100729.58;134122;1302;22471;-71
2024/03/19 00:41:25;;;;;;;;;;;;;;;1.59;68.32;100727.52;134106;1304;22542;-72
2024/03/19 00:44:26;;;;;;;;;;;;;;;1.58;68.48;100729.13;134156;1305;22464;-72
2024/03/19 00:47:32;;;;;;;;;;;;;;;1.61;68.51;100723.39;134112;1306;22508;-72
2024/03/19 00:50:35;;;;;;;;;;;;;;;1.58;68.40;100723.91;134136;1305;22472;-72
2024/03/19 00:53:42;;;;;;;;;;;;;;;1.61;68.50;100720.22;134100;1304;22554;-72
2024/03/19 00:56:43;;;;;;;;;;;;;;;1.64;68.31;100720.23;134109;1303;23637;-72
2024/03/19 00:59:43;;;;;;;;;;;;;;;1.64;68.54;100720.17;134121;1306;22459;-72
2024/03/19 01:02:44;;;;;;;;;;;;;;;1.68;68.59;100713.52;133894;1305;22464;-72
2024/03/19 01:05:45;;;;;;;;;;;;;;;1.71;68.64;100711.58;134130;1306;23374;-72
2024/03/19 01:08:45;;;;;;;;;;;;;;;1.72;68.61;100712.73;134113;1299;23367;-72
2024/03/19 01:11:48;;;;;;;;;;;;;;;1.68;68.52;100717.71;133890;1305;23037;-71
2024/03/19 01:15:03;;;;;;;;;;;;;;;1.66;68.66;100717.83;134128;1299;22459;-73
2024/03/19 01:18:35;;;;;;;;;;;;;;;1.67;68.78;100719.82;134117;1307;23296;-72
2024/03/19 01:21:36;;;;;;;;;;;;;;;1.71;68.91;100719.75;134068;1299;22587;-72
2024/03/19 01:24:38;;;;;;;;;;;;;;;1.71;68.75;100723.43;134110;1299;22594;-72
2024/03/19 01:27:39;;;;;;;;;;;;;;;1.64;68.74;100720.91;134131;1298;22517;-72
2024/03/19 01:30:41;;;;;;;;;;;;;;;1.53;68.70;100721.55;134141;1298;22464;-71
2024/03/19 01:34:05;;;;;;;;;;;;;;;1.45;68.95;100722.95;134150;1306;23151;-72
2024/03/19 01:37:11;;;;;;;;;;;;;;;1.36;69.32;100724.36;134132;1305;22450;-71
2024/03/19 01:40:14;;;;;;;;;;;;;;;1.36;69.47;100719.84;134119;1305;22654;-72
2024/03/19 01:43:16;;;;;;;;;;;;;;;1.40;69.46;100717.83;134073;1306;22537;-72
2024/03/19 01:46:20;;;;;;;;;;;;;;;1.43;69.56;100719.23;134115;1305;23135;-72
2024/03/19 01:49:20;;;;;;;;;;;;;;;1.48;69.75;100720.50;134107;1305;22465;-72
2024/03/19 01:52:36;;;;;;;;;;;;;;;1.52;69.83;100719.70;134061;1299;22472;-71
2024/03/19 01:55:37;;;;;;;;;;;;;;;1.56;69.95;100720.50;134114;1301;22470;-73
2024/03/19 01:58:38;;;;;;;;;;;;;;;1.58;70.13;100720.93;134113;1298;22485;-72
2024/03/19 02:01:40;;;;;;;;;;;;;;;1.60;70.32;100721.02;134104;1301;22479;-72
2024/03/19 02:04:40;;;;;;;;;;;;;;;1.61;70.24;100725.65;134111;1306;22457;-72
2024/03/19 02:07:45;;;;;;;;;;;;;;;1.57;70.09;100726.23;134094;1306;22476;-72
2024/03/19 02:10:49;;;;;;;;;;;;;;;1.50;70.32;100735.88;134102;1298;22498;-73
2024/03/19 02:13:50;;;;;;;;;;;;;;;1.40;70.40;100737.20;134127;1299;23239;-76
2024/03/19 02:16:53;;;;;;;;;;;;;;;1.33;70.36;100734.81;133904;1302;22443;-73
2024/03/19 02:19:56;;;;;;;;;;;;;;;1.30;70.46;100727.65;134117;1305;22491;-75
2024/03/19 02:23:00;;;;;;;;;;;;;;;1.31;70.52;100723.80;134150;1298;22474;-73
2024/03/19 02:26:04;;;;;;;;;;;;;;;1.30;70.57;100729.22;134108;1301;23128;-72
2024/03/19 02:29:05;;;;;;;;;;;;;;;1.29;70.57;100726.34;134132;1298;23233;-72
2024/03/19 02:32:06;;;;;;;;;;;;;;;1.29;70.66;100726.36;134145;1305;22451;-72
2024/03/19 02:35:07;;;;;;;;;;;;;;;1.20;70.61;100727.23;134110;1299;22463;-72
2024/03/19 02:38:09;;;;;;;;;;;;;;;1.10;70.61;100726.44;134107;1304;22563;-71
2024/03/19 02:41:10;;;;;;;;;;;;;;;1.07;70.59;100729.06;134139;1301;22611;-73
2024/03/19 02:44:12;;;;;;;;;;;;;;;1.06;70.71;100730.83;134109;1301;22469;-73
2024/03/19 02:47:12;;;;;;;;;;;;;;;1.06;70.84;100728.21;134128;1305;23267;-74
2024/03/19 02:50:16;;;;;;;;;;;;;;;1.08;70.94;100732.13;134125;1306;23123;-74
2024/03/19 02:53:19;;;;;;;;;;;;;;;1.09;70.92;100735.91;134109;1298;22584;-71
2024/03/19 02:56:19;;;;;;;;;;;;;;;1.02;70.84;100732.66;134141;1305;23072;-71
2024/03/19 02:59:26;;;;;;;;;;;;;;;0.98;71.05;100739.70;133889;1304;22467;-72
2024/03/19 03:02:26;;;;;;;;;;;;;;;0.95;71.33;100741.79;134114;1298;23240;-71
2024/03/19 03:05:27;;;;;;;;;;;;;;;0.94;71.37;100743.23;134128;1306;22473;-72
2024/03/19 03:08:30;;;;;;;;;;;;;;;0.93;71.34;100746.77;134141;1306;23245;-71
2024/03/19 03:11:39;;;;;;;;;;;;;;;0.92;71.48;100747.70;134124;1306;22583;-71
2024/03/19 03:14:39;;;;;;;;;;;;;;;0.94;71.47;100753.21;134090;1298;23115;-72
2024/03/19 03:17:40;;;;;;;;;;;;;;;0.91;71.32;100752.15;134131;1306;23180;-71
2024/03/19 03:20:42;;;;;;;;;;;;;;;0.85;71.42;100759.06;134129;1300;22468;-71
2024/03/19 03:23:50;;;;;;;;;;;;;;;0.83;71.45;100756.27;134084;1305;22836;-71
2024/03/19 03:26:51;;;;;;;;;;;;;;;0.83;71.32;100759.38;134108;1306;22492;-71
2024/03/19 03:29:52;;;;;;;;;;;;;;;0.82;71.55;100757.66;134115;1300;22539;-71
2024/03/19 03:32:53;;;;;;;;;;;;;;;0.81;71.55;100760.70;133866;1301;23241;-71
2024/03/19 03:35:53;;;;;;;;;;;;;;;0.76;71.72;100759.78;134089;1304;22450;-72
2024/03/19 03:38:54;;;;;;;;;;;;;;;0.72;72.04;100768.38;134148;1299;23236;-72
2024/03/19 03:42:03;;;;;;;;;;;;;;;0.69;72.11;100772.90;134110;1306;22619;-74
2024/03/19 03:45:14;;;;;;;;;;;;;;;0.69;72.34;100770.28;134093;1301;23390;-74
2024/03/19 03:48:15;;;;;;;;;;;;;;;0.67;72.31;100778.20;134145;1302;22463;-73
2024/03/19 03:51:15;;;;;;;;;;;;;;;0.67;72.31;100784.12;134116;1298;23352;-72
2024/03/19 03:54:19;;;;;;;;;;;;;;;0.64;72.43;100784.33;134153;1291;22577;-72
2024/03/19 03:57:22;;;;;;;;;;;;;;;0.63;72.60;100787.34;134132;1301;22462;-71
2024/03/19 04:00:23;;;;;;;;;;;;;;;0.64;72.72;100786.58;134152;1302;23235;-72
2024/03/19 04:03:24;;;;;;;;;;;;;;;0.65;72.87;100791.56;134105;1298;22456;-71
2024/03/19 04:06:25;;;;;;;;;;;;;;;0.61;72.83;100792.32;134118;1305;22447;-71
2024/03/19 04:09:25;;;;;;;;;;;;;;;0.51;73.01;100797.59;134138;1291;22468;-72
2024/03/19 04:12:26;;;;;;;;;;;;;;;0.40;73.14;100796.45;134116;1298;23278;-72
2024/03/19 04:15:37;;;;;;;;;;;;;;;;;;;;;
2024/03/19 04:18:45;;;;;;;;;;;;;;;0.39;73.64;100801.23;134078;1304;22493;-71
2024/03/19 04:21:46;;;;;;;;;;;;;;;0.40;73.68;100803.77;134121;1301;22545;-72
2024/03/19 04:24:50;;;;;;;;;;;;;;;0.42;73.82;100808.85;134138;1300;22495;-73
2024/03/19 04:27:59;;;;;;;;;;;;;;;0.44;73.84;100812.78;134108;1298;22572;-71
2024/03/19 04:31:26;;;;;;;;;;;;;;;0.48;73.96;100813.95;134125;1298;22429;-71
2024/03/19 04:34:27;;;;;;;;;;;;;;;0.53;73.98;100814.54;134141;1306;22471;-72
2024/03/19 04:37:28;;;;;;;;;;;;;;;0.58;74.26;100814.95;134114;1306;23189;-72
2024/03/19 04:40:28;;;;;;;;;;;;;;;0.59;73.99;100820.45;134126;1301;22488;-71
2024/03/19 04:43:29;;;;;;;;;;;;;;;0.59;73.83;100825.52;133889;1301;22478;-71
2024/03/19 04:46:30;;;;;;;;;;;;;;;0.60;73.97;100822.83;134121;1305;22463;-71
2024/03/19 04:49:51;;;;;;;;;;;;;;;0.64;73.90;100829.61;134114;1297;22482;-72
2024/03/19 04:52:51;;;;;;;;;;;;;;;0.67;73.92;100828.02;134095;1306;23304;-72
2024/03/19 04:55:57;;;;;;;;;;;;;;;0.70;74.11;100829.98;134082;1301;22490;-72
2024/03/19 04:58:58;;;;;;;;;;;;;;;0.72;74.18;100830.91;134085;1288;22437;-72
2024/03/19 05:01:58;;;;;;;;;;;;;;;0.74;74.27;100834.98;134103;1298;22466;-72
2024/03/19 05:05:02;;;;;;;;;;;;;;;0.74;74.38;100837.25;134102;1298;22467;-71
2024/03/19 05:08:12;;;;;;;;;;;;;;;0.74;74.47;100838.08;134112;1306;22545;-71
2024/03/19 05:11:21;;;;;;;;;;;;;;;0.77;74.54;100837.77;134130;1305;22467;-73
2024/03/19 05:14:23;;;;;;;;;;;;;;;0.78;74.54;100843.27;133801;1298;387835;-71
2024/03/19 05:17:24;;;;;;;;;;;;;;;0.80;74.66;100843.69;134116;1294;22540;-72
2024/03/19 05:20:35;;;;;;;;;;;;;;;;;;;;;
2024/03/19 05:23:35;;;;;;;;;;;;;;;0.85;74.82;100856.42;134175;1291;22463;-72
2024/03/19 05:26:39;;;;;;;;;;;;;;;0.85;74.85;100861.16;134111;1300;23183;-72
2024/03/19 05:29:43;;;;;;;;;;;;;;;0.81;74.74;100863.98;133852;1301;22447;-72
2024/03/19 05:32:46;;;;;;;;;;;;;;;0.77;74.79;100864.58;134102;1300;22477;-72
2024/03/19 05:36:07;;;;;;;;;;;;;;;0.80;74.93;100868.07;134080;1301;23675;-71
2024/03/19 05:39:25;;;;;;;;;;;;;;;0.83;75.09;100869.64;134112;1306;22473;-72
2024/03/19 05:42:34;;;;;;;;;;;;;;;0.81;75.08;100876.33;134124;1298;23162;-73
2024/03/19 05:45:37;;;;;;;;;;;;;;;0.81;75.26;100876.88;133875;1306;22447;-73
2024/03/19 05:48:40;;;;;;;;;;;;;;;0.75;75.44;100879.33;134083;1298;22465;-71
2024/03/19 05:51:41;;;;;;;;;;;;;;;0.73;75.56;100876.46;134137;1306;23277;-73
2024/03/19 05:54:45;;;;;;;;;;;;;;;0.77;75.58;100878.67;134140;1298;23226;-72
2024/03/19 05:57:46;;;;;;;;;;;;;;;0.76;75.78;100878.89;134085;1301;22490;-73
2024/03/19 06:00:49;;;;;;;;;;;;;;;0.79;75.89;100882.58;134125;1302;22467;-72
2024/03/19 06:03:53;;;;;;;;;;;;;;;0.86;75.94;100882.31;134107;1306;23218;-73
2024/03/19 06:06:54;;;;;;;;;;;;;;;0.90;75.97;100880.95;134068;1306;22469;-74
2024/03/19 06:09:54;;;;;;;;;;;;;;;0.97;76.03;100883.86;134153;1301;22448;-74
2024/03/19 06:12:58;;;;;;;;;;;;;;;1.01;76.11;100884.67;133895;1304;22588;-73
2024/03/19 06:16:04;;;;;;;;;;;;;;;0.98;76.00;100886.21;134099;1305;22467;-74
2024/03/19 06:19:05;;;;;;;;;;;;;;;1.01;76.20;100886.22;133699;1303;23224;-73
2024/03/19 06:22:06;;;;;;;;;;;;;;;1.02;76.33;100887.73;133779;1305;22486;-73
2024/03/19 06:25:07;;;;;;;;;;;;;;;1.04;76.69;100886.25;134119;1304;23255;-73
2024/03/19 06:28:08;;;;;;;;;;;;;;;1.08;76.85;100888.23;134144;1299;22441;-74
2024/03/19 06:31:11;;;;;;;;;;;;;;;1.09;76.94;100885.76;134152;1298;22424;-74
2024/03/19 06:34:14;;;;;;;;;;;;;;;1.09;77.12;100889.09;134142;1303;22473;-74
2024/03/19 06:37:15;;;;;;;;;;;;;;;1.13;77.39;100892.15;134186;1299;23203;-74
2024/03/19 06:40:17;;;;;;;;;;;;;;;1.17;77.64;100893.32;134120;1301;23206;-73
2024/03/19 06:43:18;;;;;;;;;;;;;;;1.22;77.63;100894.08;134086;1305;23280;-74
2024/03/19 06:46:39;;;;;;;;;;;;;;;1.27;77.88;100902.89;134129;1298;22453;-74
2024/03/19 06:49:40;;;;;;;;;;;;;;;1.29;77.99;100897.30;134139;1304;22515;-73
2024/03/19 06:52:42;;;;;;;;;;;;;;;1.32;78.05;100901.84;134131;1305;22550;-73
2024/03/19 06:55:43;;;;;;;;;;;;;;;1.39;78.24;100905.86;134158;1305;22513;-75
2024/03/19 06:58:44;;;;;;;;;;;;;;;1.40;78.35;100905.61;134186;1305;22476;-74
2024/03/19 07:01:45;;;;;;;;;;;;;;;1.43;78.75;100905.95;134180;1300;22460;-74
2024/03/19 07:04:47;;;;;;;;;;;;;;;1.46;78.80;100910.69;134127;1301;22481;-72
2024/03/19 07:07:48;;;;;;;;;;;;;;;1.53;78.95;100909.23;134166;1291;23724;-68
2024/03/19 07:10:51;;;;;;;;;;;;;;;1.64;78.97;100909.30;134119;1301;22617;-68
2024/03/19 07:13:52;;;;;;;;;;;;;;;1.71;79.34;100910.56;134126;1301;22453;-68
2024/03/19 07:16:52;;;;;;;;;;;;;;;1.76;79.62;100915.89;134126;1298;22492;-68
2024/03/19 07:19:54;;;;;;;;;;;;;;;1.85;79.74;100923.19;134136;1305;22503;-68
2024/03/19 07:22:55;;;;;;;;;;;;;;;1.94;79.85;100923.36;134123;1300;22452;-69
2024/03/19 07:25:55;;;;;;;;;;;;;;;2.04;80.09;100922.07;134096;1305;22463;-71
2024/03/19 07:29:05;;;;;;;;;;;;;;;2.15;80.17;100921.55;134057;1298;22475;-71
2024/03/19 07:32:09;;;;;;;;;;;;;;;2.28;80.03;100920.42;134181;1304;22450;-72
2024/03/19 07:35:10;;;;;;;;;;;;;;;2.40;80.13;100930.49;134143;1306;22448;-71
2024/03/19 07:38:11;;;;;;;;;;;;;;;2.46;79.71;100932.09;134164;1306;22487;-71
2024/03/19 07:41:12;;;;;;;;;;;;;;;2.60;79.82;100930.83;134137;1305;22465;-72
2024/03/19 07:44:15;;;;;;;;;;;;;;;2.75;79.51;100933.92;134141;1306;22556;-71
2024/03/19 07:47:16;;;;;;;;;;;;;;;2.87;79.20;100936.50;134070;1288;22460;-71
2024/03/19 07:50:22;;;;;;;;;;;;;;;2.89;78.55;100937.44;134183;1298;23166;-72
2024/03/19 07:53:22;;;;;;;;;;;;;;;2.83;78.45;100941.11;134086;1298;22487;-71
2024/03/19 07:56:32;;;;;;;;;;;;;;;2.78;78.40;100944.25;134117;1306;22503;-72
2024/03/19 07:59:33;;;;;;;;;;;;;;;2.70;78.57;100944.02;134117;1305;22473;-72
2024/03/19 08:02:46;;;;;;;;;;;;;;;2.67;78.74;100947.70;134120;1299;22429;-71
2024/03/19 08:05:47;;;;;;;;;;;;;;;2.61;78.58;100947.55;134150;1301;22470;-71
2024/03/19 08:08:48;;;;;;;;;;;;;;;2.57;78.61;100949.55;134115;1301;22482;-72
2024/03/19 08:11:51;;;;;;;;;;;;;;;2.54;78.52;100953.06;134095;1301;23227;-71
2024/03/19 08:15:03;;;;;;;;;;;;;;;;;;;;;
2024/03/19 08:18:18;;;;;;;;;;;;;;;2.44;78.14;100956.46;134142;1291;22521;-72
2024/03/19 08:21:22;;;;;;;;;;;;;;;2.44;78.37;100958.20;134145;1305;22495;-71
2024/03/19 08:24:23;;;;;;;;;;;;;;;2.44;78.49;100958.19;134122;1306;22472;-72
2024/03/19 08:27:25;;;;;;;;;;;;;;;2.49;78.62;100959.99;134167;1301;22453;-72
2024/03/19 08:30:26;;;;;;;;;;;;;;;2.49;78.56;100961.02;134129;1301;22462;-71
2024/03/19 08:33:27;;;;;;;;;;;;;;;2.53;78.65;100963.27;134124;1306;22466;-71
2024/03/19 08:36:35;;;;;;;;;;;;;;;2.57;78.48;100964.03;134108;1301;22461;-71
2024/03/19 08:39:36;;;;;;;;;;;;;;;2.63;78.08;100965.06;134178;1305;22458;-71
2024/03/19 08:42:37;;;;;;;;;;;;;;;2.72;77.95;100965.22;134127;1302;22538;-73
2024/03/19 08:45:37;;;;;;;;;;;;;;;2.81;78.28;100964.63;134134;1298;22460;-71
2024/03/19 08:48:38;;;;;;;;;;;;;;;2.95;78.13;100965.71;134118;1304;22486;-72
2024/03/19 08:51:39;;;;;;;;;;;;;;;3.06;77.67;100966.05;134147;1305;22543;-71
2024/03/19 08:55:00;;;;;;;;;;;;;;;3.19;77.21;100968.58;134170;1300;22439;-71
2024/03/19 08:58:03;;;;;;;;;;;;;;;3.39;77.28;100965.14;134093;1298;22520;-71
2024/03/19 09:01:11;;;;;;;;;;;;;;;3.59;76.14;100968.39;134125;1298;22482;-71
2024/03/19 09:04:24;;;;;;;;;;;;;;;3.64;75.42;100965.48;134135;1293;22545;-72
2024/03/19 09:07:34;;;;;;;;;;;;;;;3.71;75.39;100968.44;133943;1301;22458;-71
2024/03/19 09:10:43;;;;;;;;;;;;;;;3.81;74.71;100969.94;134113;1298;22457;-71
2024/03/19 09:14:06;;;;;;;;;;;;;;;3.98;74.73;100971.04;134159;1301;22453;-70
2024/03/19 09:17:10;;;;;;;;;;;;;;;4.61;74.92;100965.30;134070;1305;23630;-71
2024/03/19 09:20:31;;;;;;;;;;;;;;;5.17;73.20;100966.96;134135;1300;22553;-72
2024/03/19 09:23:34;;;;;;;;;;;;;;;5.29;73.08;100965.00;134139;1301;22451;-72
2024/03/19 09:26:38;;;;;;;;;;;;;;;5.23;72.39;100969.11;134123;1303;22474;-72
2024/03/19 09:29:41;;;;;;;;;;;;;;;5.10;71.48;100967.27;134135;1301;22542;-71
2024/03/19 09:32:42;;;;;;;;;;;;;;;5.03;71.86;100967.42;133780;1306;23169;-71
2024/03/19 09:35:51;;;;;;;;;;;;;;;5.07;71.41;100970.66;134140;1304;23286;-71
2024/03/19 09:38:52;;;;;;;;;;;;;;;5.10;70.62;100968.50;134165;1306;22461;-71
2024/03/19 09:42:19;;;;;;;;;;;;;;;5.61;70.39;100967.70;134143;1305;22553;-72
2024/03/19 09:45:27;;;;;;;;;;;;;;;6.07;68.38;100964.46;134106;1299;22486;-71
2024/03/19 09:48:28;;;;;;;;;;;;;;;6.56;69.59;100963.69;134136;1303;22465;-71
2024/03/19 09:51:31;;;;;;;;;;;;;;;6.84;67.72;100969.39;134158;1301;22459;-71
2024/03/19 09:57:54;;;;;;;;;;;;;;;6.57;66.87;100970.82;134111;1300;22473;-73
2024/03/19 10:00:55;;;;;;;;;;;;;;;6.41;66.50;100969.27;134148;1301;22469;-72
2024/03/19 10:03:56;;;;;;;;;;;;;;;6.48;65.86;100970.30;134151;1303;22452;-72
2024/03/19 10:06:56;;;;;;;;;;;;;;;6.35;65.76;100964.67;134133;1298;22454;-72
2024/03/19 10:09:57;;;;;;;;;;;;;;;6.20;65.28;100965.79;134152;1305;22433;-73
2024/03/19 10:12:59;;;;;;;;;;;;;;;6.08;65.44;100961.95;134094;1306;22471;-72
2024/03/19 10:15:59;;;;;;;;;;;;;;;6.33;65.92;100962.87;134083;1306;22501;-71
2024/03/19 10:19:00;;;;;;;;;;;;;;;6.67;66.01;100959.67;134173;1305;22477;-73
2024/03/19 10:22:01;;;;;;;;;;;;;;;6.75;64.94;100960.98;134141;1301;22502;-71
2024/03/19 10:25:01;;;;;;;;;;;;;;;6.53;63.80;100964.77;134137;1306;22467;-72
2024/03/19 10:28:04;;;;;;;;;;;;;;;6.32;62.98;100958.37;134115;1306;22523;-73
2024/03/19 10:31:16;;;;;;;;;;;;;;;6.13;63.15;100963.50;134147;1298;22439;-72
2024/03/19 10:34:21;;;;;;;;;;;;;;;6.07;62.61;100963.45;134156;1301;22443;-73
2024/03/19 10:37:24;;;;;;;;;;;;;;;5.94;62.61;100962.96;134137;1306;22453;-73
2024/03/19 10:40:24;;;;;;;;;;;;;;;6.02;63.66;100962.08;134146;1306;22469;-72
2024/03/19 10:43:27;;;;;;;;;;;;;;;6.16;63.13;100962.18;134116;1305;23667;-71
2024/03/19 10:46:31;;;;;;;;;;;;;;;6.24;62.72;100961.81;134083;1298;22519;-72
2024/03/19 10:49:32;;;;;;;;;;;;;;;6.34;63.01;100968.05;134143;1299;23142;-73
2024/03/19 10:52:38;;;;;;;;;;;;;;;6.50;62.75;100963.83;134083;1306;22467;-72
2024/03/19 10:55:39;;;;;;;;;;;;;;;6.59;62.41;100965.02;134105;1298;23263;-72
2024/03/19 10:58:40;;;;;;;;;;;;;;;6.67;62.36;100963.02;134120;1301;22477;-73
2024/03/19 11:01:52;;;;;;;;;;;;;;;6.80;62.23;100962.52;134114;1301;22426;-72
2024/03/19 11:04:59;;;;;;;;;;;;;;;6.89;61.57;100964.05;134094;1298;22471;-72
2024/03/19 11:08:02;;;;;;;;;;;;;;;6.89;61.60;100960.39;134137;1300;23613;-72
2024/03/19 11:11:07;;;;;;;;;;;;;;;6.88;61.26;100962.06;134086;1298;22505;-72
2024/03/19 11:14:15;;;;;;;;;;;;;;;6.87;61.06;100960.39;134117;1299;22562;-72
2024/03/19 11:17:16;;;;;;;;;;;;;;;7.03;61.47;100957.86;134126;1298;22470;-72
2024/03/19 11:20:21;;;;;;;;;;;;;;;7.24;61.21;100955.27;134121;1298;22502;-72
2024/03/19 11:23:23;;;;;;;;;;;;;;;7.67;60.72;100949.31;134128;1298;22469;-72
2024/03/19 11:26:29;;;;;;;;;;;;;;;8.08;60.67;100948.69;134164;1298;22460;-72
2024/03/19 11:29:33;;;;;;;;;;;;;;;8.53;60.08;100949.55;134103;1301;22467;-72
2024/03/19 11:32:36;;;;;;;;;;;;;;;8.86;59.16;100941.73;134109;1291;22468;-73
2024/03/19 11:35:36;;;;;;;;;;;;;;;9.04;58.99;100949.88;134110;1300;22712;-72
2024/03/19 11:38:38;;;;;;;;;;;;;;;9.27;58.55;100946.59;134095;1301;22507;-72
2024/03/19 11:41:39;;;;;;;;;;;;;;;9.49;57.43;100944.62;134101;1298;22454;-73
2024/03/19 11:44:46;;;;;;;;;;;;;;;9.56;56.92;100944.15;134134;1298;22507;-72
2024/03/19 11:47:46;;;;;;;;;;;;;;;9.84;57.02;100937.33;134130;1298;22493;-72
2024/03/19 11:50:53;;;;;;;;;;;;;;;10.00;56.47;100936.54;134099;1300;23364;-72
2024/03/19 11:54:00;;;;;;;;;;;;;;;10.02;56.36;100933.31;134136;1306;23152;-72
2024/03/19 11:57:02;;;;;;;;;;;;;;;10.21;55.54;100933.48;134124;1298;22497;-71
2024/03/19 12:00:10;;;;;;;;;;;;;;;10.32;54.91;100931.29;134115;1304;22485;-71
2024/03/19 12:03:22;;;;;;;;;;;;;;;10.31;54.72;100931.88;134109;1298;22461;-72
2024/03/19 12:06:23;;;;;;;;;;;;;;;10.08;53.86;100926.48;134140;1301;22463;-73
2024/03/19 12:09:28;;;;;;;;;;;;;;;9.79;53.19;100925.45;134120;1298;22488;-72
2024/03/19 12:12:32;;;;;;;;;;;;;;;9.43;52.72;100924.27;134105;1298;22503;-75
2024/03/19 12:15:34;;;;;;;;;;;;;;;9.15;52.68;100921.02;134119;1300;23390;-72
2024/03/19 12:18:35;;;;;;;;;;;;;;;8.82;52.53;100922.50;134135;1301;23218;-73
2024/03/19 12:21:45;;;;;;;;;;;;;;;8.61;53.07;100922.14;134142;1298;22463;-72
2024/03/19 12:24:46;;;;;;;;;;;;;;;8.48;52.91;100922.34;134108;1301;22472;-71
2024/03/19 12:27:49;;;;;;;;;;;;;;;8.34;53.14;100920.34;134167;1305;22447;-72
2024/03/19 12:31:01;;;;;;;;;;;;;;;;;;;;;
2024/03/19 12:34:48;;;;;;;;;;;;;;;8.24;53.40;100918.73;134130;1306;22462;-72
2024/03/19 12:37:54;;;;;;;;;;;;;;;8.23;53.41;100913.16;134120;1300;22449;-71
2024/03/19 12:40:56;;;;;;;;;;;;;;;8.17;52.74;100915.85;134141;1301;22455;-72
2024/03/19 12:44:00;;;;;;;;;;;;;;;7.94;52.21;100914.95;134106;1301;22511;-72
2024/03/19 12:47:02;;;;;;;;;;;;;;;7.85;52.74;100912.88;134097;1301;22544;-72
2024/03/19 12:50:03;;;;;;;;;;;;;;;7.72;52.01;100912.22;134141;1301;22491;-71
2024/03/19 12:53:06;;;;;;;;;;;;;;;7.72;52.89;100908.34;134125;1306;22473;-72
2024/03/19 12:56:07;;;;;;;;;;;;;;;7.91;52.47;100908.30;134150;1299;22488;-71
2024/03/19 12:59:22;;;;;;;;;;;;;;;8.07;52.54;100903.59;134180;1291;23106;-72
2024/03/19 13:02:22;;;;;;;;;;;;;;;8.27;51.92;100897.12;133932;1301;22570;-71
2024/03/19 13:05:23;;;;;;;;;;;;;;;8.45;52.21;100894.73;134101;1304;23287;-72
2024/03/19 13:08:26;;;;;;;;;;;;;;;8.71;52.25;100889.98;134102;1298;22605;-71
2024/03/19 13:11:34;;;;;;;;;;;;;;;8.92;51.82;100891.60;134198;1301;23245;-72
2024/03/19 13:14:39;;;;;;;;;;;;;;;9.04;51.53;100889.00;134150;1306;22443;-71
2024/03/19 13:17:40;;;;;;;;;;;;;;;9.05;50.73;100885.40;134169;1298;22543;-72
2024/03/19 13:20:50;;;;;;;;;;;;;;;8.93;50.20;100887.70;134112;1301;22472;-71
2024/03/19 13:24:11;;;;;;;;;;;;;;;8.80;50.27;100884.64;134152;1301;23213;-72
2024/03/19 13:27:14;;;;;;;;;;;;;;;8.77;50.67;100882.05;134141;1306;22562;-73
2024/03/19 13:30:16;;;;;;;;;;;;;;;8.81;50.69;100884.67;134119;1292;23530;-72
2024/03/19 13:33:37;;;;;;;;;;;;;;;8.89;51.28;100881.17;134106;1298;23696;-72
2024/03/19 13:36:50;;;;;;;;;;;;;;;8.93;50.96;100875.50;134112;1304;22463;-73
2024/03/19 13:40:00;;;;;;;;;;;;;;;8.96;51.14;100871.16;134137;1305;22542;-71
2024/03/19 13:43:01;;;;;;;;;;;;;;;8.96;50.95;100868.02;134141;1302;22449;-72
2024/03/19 13:46:04;;;;;;;;;;;;;;;9.00;50.78;100864.61;134143;1306;22466;-72
2024/03/19 13:49:18;;;;;;;;;;;;;;;9.04;50.25;100866.28;134108;1306;23246;-71
2024/03/19 13:52:23;;;;;;;;;;;;;;;8.96;50.23;100866.54;134152;1305;22486;-72
2024/03/19 13:55:31;;;;;;;;;;;;;;;8.87;49.29;100865.09;134141;1299;22481;-72
2024/03/19 13:58:32;;;;;;;;;;;;;;;8.59;49.84;100867.80;134101;1296;22452;-72
2024/03/19 14:01:33;;;;;;;;;;;;;;;8.50;49.92;100869.59;134126;1306;22523;-72
2024/03/19 14:04:34;;;;;;;;;;;;;;;8.44;50.02;100872.92;134146;1306;22825;-72
2024/03/19 14:07:44;;;;;;;;;;;;;;;8.46;50.25;100877.52;134101;1302;22524;-71
2024/03/19 14:10:58;;;;;;;;;;;;;;;8.42;49.73;100875.73;134133;1306;23247;-71
2024/03/19 14:14:00;;;;;;;;;;;;;;;8.19;49.98;100871.77;134112;1304;22454;-72
2024/03/19 14:17:01;;;;;;;;;;;;;;;8.02;50.37;100871.67;134155;1291;22461;-71
2024/03/19 14:20:04;;;;;;;;;;;;;;;7.95;50.46;100871.54;134136;1306;23237;-71
2024/03/19 14:23:25;;;;;;;;;;;;;;;7.93;50.12;100868.55;134119;1306;22716;-71
2024/03/19 14:26:26;;;;;;;;;;;;;;;7.87;50.24;100871.35;134099;1305;23140;-72
2024/03/19 14:29:26;;;;;;;;;;;;;;;7.91;50.78;100870.88;134104;1304;22631;-72
2024/03/19 14:32:27;;;;;;;;;;;;;;;7.93;50.78;100867.11;134106;1301;22467;-72
2024/03/19 14:35:28;;;;;;;;;;;;;;;7.99;50.87;100863.60;134103;1305;22455;-73
2024/03/19 14:38:29;;;;;;;;;;;;;;;8.01;50.66;100862.02;134110;1305;23011;-72
2024/03/19 14:41:30;;;;;;;;;;;;;;;7.97;50.33;100861.66;134090;1305;22509;-72
2024/03/19 14:44:31;;;;;;;;;;;;;;;7.84;50.19;100861.89;134156;1306;23582;-71
2024/03/19 14:47:42;;;;;;;;;;;;;;;7.69;50.18;100861.59;134168;1305;22548;-72
2024/03/19 14:50:43;;;;;;;;;;;;;;;7.57;50.66;100860.48;134113;1298;22530;-68
2024/03/19 14:53:44;;;;;;;;;;;;;;;7.57;50.58;100854.52;134122;1298;22512;-69
2024/03/19 14:56:45;;;;;;;;;;;;;;;7.52;51.11;100855.16;134100;1306;22450;-68
2024/03/19 14:59:46;;;;;;;;;;;;;;;7.49;50.51;100851.67;134179;1298;22470;-68
2024/03/19 15:02:49;;;;;;;;;;;;;;;7.40;50.69;100854.66;134114;1304;22441;-68
2024/03/19 15:05:50;;;;;;;;;;;;;;;7.37;50.84;100857.39;134091;1298;22463;-68
2024/03/19 15:08:51;;;;;;;;;;;;;;;7.33;50.78;100857.77;134098;1304;22572;-68
2024/03/19 15:11:54;;;;;;;;;;;;;;;7.26;51.05;100861.53;134121;1306;23154;-68
2024/03/19 15:15:06;;;;;;;;;;;;;;;;;;;;;
2024/03/19 15:18:08;;;;;;;;;;;;;;;7.13;51.08;100863.46;134114;1305;22481;-68
2024/03/19 15:21:09;;;;;;;;;;;;;;;7.15;51.32;100865.02;134111;1305;23183;-69
2024/03/19 15:24:13;;;;;;;;;;;;;;;7.19;51.40;100861.36;134123;1293;22461;-68
2024/03/19 15:27:14;;;;;;;;;;;;;;;7.16;51.24;100862.86;134126;1305;22475;-69
2024/03/19 15:30:14;;;;;;;;;;;;;;;7.09;51.34;100859.87;134117;1305;22471;-68
2024/03/19 15:33:15;;;;;;;;;;;;;;;7.11;51.66;100858.71;134144;1305;22436;-68
2024/03/19 15:36:15;;;;;;;;;;;;;;;7.14;51.34;100858.10;133903;1305;22542;-68
2024/03/19 15:39:16;;;;;;;;;;;;;;;7.10;51.43;100857.05;134138;1303;22517;-69
2024/03/19 15:42:17;;;;;;;;;;;;;;;7.01;51.10;100855.13;134110;1306;23226;-68
2024/03/19 15:45:21;;;;;;;;;;;;;;;6.93;51.33;100855.58;134109;1298;22474;-68
2024/03/19 15:48:21;;;;;;;;;;;;;;;6.92;51.42;100856.57;134101;1306;22534;-68
2024/03/19 15:51:22;;;;;;;;;;;;;;;6.91;51.48;100859.08;134155;1301;22543;-68
2024/03/19 15:54:22;;;;;;;;;;;;;;;6.88;51.29;100857.92;134100;1303;22481;-69
2024/03/19 15:57:24;;;;;;;;;;;;;;;6.82;51.37;100856.51;134115;1305;22466;-69